Latest METARs, TAFs and NOTAMs for LIML


---------------------------------------------------------------------------
	(OBSERVATIONS)
LIML 212220Z 07003KT 9999 SCT090 05/M01 Q1008 NOSIG=
LIML 212150Z 06004KT 9999 SCT090 05/M01 Q1008 NOSIG=
LIML 212120Z 08003KT 040V100 9999 SCT090 05/M01 Q1008 NOSIG=
LIML 212050Z VRB02KT 9999 SCT090 05/M01 Q1009 NOSIG=
LIML 212020Z 15003KT 120V190 9999 SCT090 06/M01 Q1009 NOSIG=
LIML 211950Z 14004KT 100V180 9999 SCT090 06/M02 Q1008 NOSIG=
---------------------------------------------------------------------------
	(FC)
Sorry, FC For LIML Not Found
---------------------------------------------------------------------------
	(TERMINAL AREA FORECAST)
LIML 211700Z 2118/2218 17010KT 8000 BKN080
    BECMG 2120/2122 VRB05KT
    BECMG 2203/2206 4000 DZ BKN012 OVC040=
---------------------------------------------------------------------------
	(NOTAMS)


LIML A0355/18 RUNWAY 17/35 CLOSED AND USED AS PARKING AREA. RMK:
    HEL/FATO NOT AFFECTED. REF AIP AD 2 LIML 2-1. 18 JAN 15:35
    2018 UNTIL 24 MAR 10:00 2018. CREATED: 18 JAN 15:36 2018

LIML A0356/18 LANDING AND TKOF NOT ALLOWED TO VFR FIXED WING
    ACFT. TFC NOT AFFECTED: MIL, STATE, HUMANITARIAN AND HOSPITAL
    FLIGHT. REF AIP AD 2 LIML 1-1. DAILY 0501-0900 1101-1400
    AND 1601-2200, 18 JAN 15:47 2018 UNTIL 24 MAR 22:00 2018.
    CREATED: 18 JAN 15:47 2018

LIML A0458/18 INSTRUMENT APPROACH PROCEDURE L RWY18 TEMPORARILY
    SUSPENDED DUE TO TZO VOR NOT AVAILABLE REF AIP AD 2 LIML
    5-13. 29 JAN 08:30 2018 UNTIL 27 APR 23:59 2018 ESTIMATED.
    CREATED: 22 JAN 15:58 2018

LIML A0459/18 HOLDING PROCEDURE SUSPENDED - DORIN - KALIK DUE
    TO TZO VOR NOT AVAILABLE REF AIP AD 2 LIML 4-1/11. 29 JAN
    08:30 2018 UNTIL 27 APR 23:59 2018 ESTIMATED. CREATED: 22
    JAN 15:59 2018

LIML A0470/18 TREZZO VOR/DME 'TZO' FREQ 111.80MHZ CH 55X, AVBL
    AS FLW: - VOR UNSERVICEABLE - DME OPERATING TEMPORARILY AS
    FLW: POSITION COORD (WGS-84) 453332.6N 0093027.8E ELEV 159M
    AMSL LIMITATIONS: SECTOR 320DEG/050DEG AT 40NM MRA FL120
    SECTOR 050DEG/080DEG AT 40NM MRA FL100 SECTOR 080DEG/200DEG
    AT 40NM 5000FT SECTOR 200DEG/320DEG AT 40NM 6000FT REF AIP
    AD 2 LIML 1-8. 29 JAN 08:30 2018 UNTIL 27 APR 23:59 2018
    ESTIMATED. CREATED: 23 JAN 08:25 2018

LIML A0517/18 REF AIP AD 2 LIML 4-1/6 STANDARD INSTRUMENT ARRIVAL
    PROCEDURE RWY36 KALIK 2A (ATC DISCRETION) SEGMENT BTN KALIK
    AND IBLUN MODIFY MINIMUM ENROUTE LEVEL TO READ FL100 INSTEAD
    OF FL95 OTHER DATA UNCHANGED. 24 JAN 12:36 2018 UNTIL PERM.
    CREATED: 24 JAN 12:36 2018

LIML A0562/18 REF AIP AD 2 LIML 3-1 AND AOC TYPE B NR ML 4/1
    NEW OBSTACLE ERECTED CRANE PENETRATING: TKOF FLIGHT PATH
    AEREA RWY36 - TKOF CLIMB SURFACE RWY36 PSN 3188.6M AFTER
    THR36 AND 215.2M RIGHT RCL ON TKOF DIRECTION COORD (WGS-84)
    452747.1 0091640.4E ELEV AGL 17.8M/58.4FT ELEV AMSL 127.8M/419.3FT
    OPERATING RADIUS 40M ICAO SIGNAL UNPROVIDED. 29 JAN 00:01
    2018 UNTIL PERM. CREATED: 26 JAN 09:30 2018

LIML A1116/18 RUNWAY 18/36, HEL/FATO AND ALL TWY CLSD DUE TO
    MAINT WORKS REF AIP AD 2 LIML 2-1. DAILY 2245-0445, 21 FEB
    22:45 2018 UNTIL 24 FEB 04:45 2018. CREATED: 21 FEB 10:57
    2018

LIML A8287/17 GENOVA NDB 'GEN' FREQ 318.00KHZ ON TEST, DO NOT
    USE REF AIP AD 2 LIML 1-7. 06 DEC 17:11 2017 UNTIL 05 MAR
    23:59 2018 ESTIMATED. CREATED: 06 DEC 17:11 2017

LIML A8482/17 ADVANCED ULTRA LIGHT MACHINES ARE NOT ALLOWED TO
    ENTER ATZ REF AIP AD 2 LIML 1-9. 14 DEC 11:04 2017 UNTIL
    28 FEB 23:59 2018 ESTIMATED. CREATED: 14 DEC 11:04 2017

LIML A8683/17 OBSTACLE ERECTED MOBILE CRANE OPERATING IN POSITION
    (WGS-84): 452739.06N 0091644.76E ELEV AGL 15.20M/49.86FT
    ELEV AMSL 130.00M/426.50FT RMK: ICAO SIGNALS PROVIDED REF
    AOC TYPE B NR ML 4/0. 21 DEC 19:00 2017 UNTIL 09 MAR 22:45
    2018. CREATED: 21 DEC 17:13 2017

LIML A8714/17 DE-ICING FLUID AVAILABLE 'KILFROST ABC-K PLUS TYPE
    II (10, 50, 100 PER CENT)' INSTEAD OF 'KILFROST ABC3 TYPE
    II (10, 50, 100 PER CENT)' REF AIP AD 2 LIML 1-17. 23 DEC
    08:15 2017 UNTIL 15 MAR 22:59 2018. CREATED: 23 DEC 08:15
    2017

LIML M0360/18 REF FLIP CENTRAL AND NORTHERN ITALY AD LIML 1-2,
    1-2.2 ARRIVAL TRANSITION AND STAR RWY36 STANDARD INSTRUMENT
    ARRIVAL PROCEDURE RWY36 KALIK 2A (ATC DISCRETION) SEGMENT
    BTN KALIK AND IBLUN MODIFY MINIMUM ENROUTE LEVEL TO READ
    FL100 INSTEAD OF FL95 OTHER DATA UNCHANGED. 26 JAN 09:57
    2018 UNTIL PERM. CREATED: 26 JAN 09:58 2018

---------------------------------------------------------------------------